sensor_id;sensor_type;location;lat;lon;timestamp;noise_LAeq;noise_LA_min;noise_LA_max;noise_LA01;noise_LA95
69609;Laerm;56815;52.320;4.858;2022-11-20T00:00:05;38.40;34.59;53.00;;
69609;Laerm;56815;52.320;4.858;2022-11-20T00:00:16;59.47;35.20;79.63;;
69609;Laerm;56815;52.320;4.858;2022-11-20T00:00:26;39.78;34.43;55.62;;
69609;Laerm;56815;52.320;4.858;2022-11-20T00:00:36;39.46;34.60;50.34;;
69609;Laerm;56815;52.320;4.858;2022-11-20T00:00:46;36.78;33.59;39.45;;
69609;Laerm;56815;52.320;4.858;2022-11-20T00:00:57;36.92;34.36;39.25;;
69609;Laerm;56815;52.320;4.858;2022-11-20T00:01:08;36.92;35.23;40.31;;
69609;Laerm;56815;52.320;4.858;2022-11-20T00:01:22;35.96;33.87;37.78;;
69609;Laerm;56815;52.320;4.858;2022-11-20T00:01:33;37.18;33.48;54.65;;
69609;Laerm;56815;52.320;4.858;2022-11-20T00:01:44;39.96;34.30;56.62;;
69609;Laerm;56815;52.320;4.858;2022-11-20T00:01:54;44.78;35.18;62.39;;
69609;Laerm;56815;52.320;4.858;2022-11-20T00:02:04;36.96;34.34;39.14;;
69609;Laerm;56815;52.320;4.858;2022-11-20T00:02:14;36.77;34.56;42.55;;
69609;Laerm;56815;52.320;4.858;2022-11-20T00:02:25;36.87;34.28;40.60;;
69609;Laerm;56815;52.320;4.858;2022-11-20T00:02:35;38.07;35.01;45.74;;
69609;Laerm;56815;52.320;4.858;2022-11-20T00:02:46;37.54;34.80;40.45;;
69609;Laerm;56815;52.320;4.858;2022-11-20T00:02:56;36.49;34.11;39.12;;
69609;Laerm;56815;52.320;4.858;2022-11-20T00:03:06;36.72;34.45;38.60;;
69609;Laerm;56815;52.320;4.858;2022-11-20T00:03:16;36.52;33.97;38.17;;
69609;Laerm;56815;52.320;4.858;2022-11-20T00:03:27;36.47;34.28;38.62;;
69609;Laerm;56815;52.320;4.858;2022-11-20T00:03:37;36.90;34.44;38.94;;
69609;Laerm;56815;52.320;4.858;2022-11-20T00:03:48;37.04;35.23;39.28;;
69609;Laerm;56815;52.320;4.858;2022-11-20T00:03:59;37.16;35.23;39.33;;
69609;Laerm;56815;52.320;4.858;2022-11-20T00:04:10;36.59;34.24;38.51;;
69609;Laerm;56815;52.320;4.858;2022-11-20T00:04:21;36.41;34.20;38.87;;
69609;Laerm;56815;52.320;4.858;2022-11-20T00:04:32;36.26;33.84;38.84;;
69609;Laerm;56815;52.320;4.858;2022-11-20T00:04:42;36.27;33.97;37.97;;
69609;Laerm;56815;52.320;4.858;2022-11-20T00:04:52;35.74;33.55;37.44;;
69609;Laerm;56815;52.320;4.858;2022-11-20T00:05:02;35.69;33.73;38.19;;
69609;Laerm;56815;52.320;4.858;2022-11-20T00:05:13;37.53;34.21;54.32;;
69609;Laerm;56815;52.320;4.858;2022-11-20T00:05:23;37.01;35.09;39.04;;
69609;Laerm;56815;52.320;4.858;2022-11-20T00:05:33;37.29;35.34;39.18;;
69609;Laerm;56815;52.320;4.858;2022-11-20T00:05:44;37.12;34.89;40.58;;
69609;Laerm;56815;52.320;4.858;2022-11-20T00:05:59;37.16;35.02;39.58;;
69609;Laerm;56815;52.320;4.858;2022-11-20T00:06:10;36.68;33.92;38.89;;
69609;Laerm;56815;52.320;4.858;2022-11-20T00:06:21;37.47;34.49;41.12;;
69609;Laerm;56815;52.320;4.858;2022-11-20T00:06:32;36.58;34.31;38.77;;
69609;Laerm;56815;52.320;4.858;2022-11-20T00:06:42;36.40;34.50;38.75;;
69609;Laerm;56815;52.320;4.858;2022-11-20T00:06:52;36.15;33.87;38.69;;
69609;Laerm;56815;52.320;4.858;2022-11-20T00:07:02;36.04;33.56;38.78;;
69609;Laerm;56815;52.320;4.858;2022-11-20T00:07:13;36.45;33.38;38.68;;
69609;Laerm;56815;52.320;4.858;2022-11-20T00:07:23;36.79;34.65;38.81;;
69609;Laerm;56815;52.320;4.858;2022-11-20T00:07:33;36.65;34.76;38.59;;
69609;Laerm;56815;52.320;4.858;2022-11-20T00:07:44;36.40;33.76;38.19;;
69609;Laerm;56815;52.320;4.858;2022-11-20T00:07:54;36.65;34.38;39.04;;
69609;Laerm;56815;52.320;4.858;2022-11-20T00:08:04;36.54;34.33;38.67;;
69609;Laerm;56815;52.320;4.858;2022-11-20T00:08:14;36.73;34.73;39.37;;
69609;Laerm;56815;52.320;4.858;2022-11-20T00:08:25;36.54;34.41;38.53;;
69609;Laerm;56815;52.320;4.858;2022-11-20T00:08:35;37.16;34.26;49.56;;
69609;Laerm;56815;52.320;4.858;2022-11-20T00:08:46;35.89;34.06;37.77;;
69609;Laerm;56815;52.320;4.858;2022-11-20T00:08:57;37.28;34.13;55.72;;
69609;Laerm;56815;52.320;4.858;2022-11-20T00:09:09;36.24;34.25;37.88;;
69609;Laerm;56815;52.320;4.858;2022-11-20T00:09:19;35.81;33.70;37.67;;
69609;Laerm;56815;52.320;4.858;2022-11-20T00:09:30;36.32;33.30;46.31;;
69609;Laerm;56815;52.320;4.858;2022-11-20T00:09:40;36.01;33.92;37.59;;
69609;Laerm;56815;52.320;4.858;2022-11-20T00:09:51;36.52;33.92;39.35;;
69609;Laerm;56815;52.320;4.858;2022-11-20T00:10:01;36.21;33.99;38.60;;
69609;Laerm;56815;52.320;4.858;2022-11-20T00:10:11;36.46;33.55;43.68;;
69609;Laerm;56815;52.320;4.858;2022-11-20T00:10:22;35.93;34.09;38.23;;
69609;Laerm;56815;52.320;4.858;2022-11-20T00:10:32;35.37;33.10;37.46;;
69609;Laerm;56815;52.320;4.858;2022-11-20T00:10:42;35.34;33.14;37.52;;
69609;Laerm;56815;52.320;4.858;2022-11-20T00:10:52;34.58;32.12;36.85;;
69609;Laerm;56815;52.320;4.858;2022-11-20T00:11:06;34.25;32.31;35.82;;
69609;Laerm;56815;52.320;4.858;2022-11-20T00:11:18;34.90;32.55;40.61;;
69609;Laerm;56815;52.320;4.858;2022-11-20T00:11:29;35.25;33.52;37.43;;
69609;Laerm;56815;52.320;4.858;2022-11-20T00:11:40;34.68;32.42;36.52;;
69609;Laerm;56815;52.320;4.858;2022-11-20T00:11:50;34.57;32.90;36.50;;
69609;Laerm;56815;52.320;4.858;2022-11-20T00:12:01;34.93;33.38;36.65;;
69609;Laerm;56815;52.320;4.858;2022-11-20T00:12:11;35.44;33.16;38.46;;
69609;Laerm;56815;52.320;4.858;2022-11-20T00:12:21;36.16;33.62;38.98;;
69609;Laerm;56815;52.320;4.858;2022-11-20T00:12:31;36.06;33.43;38.30;;
69609;Laerm;56815;52.320;4.858;2022-11-20T00:12:42;35.64;33.15;37.76;;
69609;Laerm;56815;52.320;4.858;2022-11-20T00:12:52;35.40;33.40;37.73;;
69609;Laerm;56815;52.320;4.858;2022-11-20T00:13:02;34.74;32.91;36.66;;
69609;Laerm;56815;52.320;4.858;2022-11-20T00:13:13;35.27;32.98;39.16;;
69609;Laerm;56815;52.320;4.858;2022-11-20T00:13:23;35.43;33.01;37.46;;
69609;Laerm;56815;52.320;4.858;2022-11-20T00:13:33;34.79;32.49;37.39;;
69609;Laerm;56815;52.320;4.858;2022-11-20T00:13:44;34.78;32.59;37.03;;
69609;Laerm;56815;52.320;4.858;2022-11-20T00:13:55;35.75;33.52;37.82;;
69609;Laerm;56815;52.320;4.858;2022-11-20T00:14:08;35.79;33.39;38.21;;
69609;Laerm;56815;52.320;4.858;2022-11-20T00:14:19;35.12;32.94;37.14;;
69609;Laerm;56815;52.320;4.858;2022-11-20T00:14:29;34.74;32.62;36.84;;
69609;Laerm;56815;52.320;4.858;2022-11-20T00:14:40;34.58;32.21;36.45;;
69609;Laerm;56815;52.320;4.858;2022-11-20T00:14:51;35.30;33.36;38.66;;
69609;Laerm;56815;52.320;4.858;2022-11-20T00:15:01;35.42;33.26;37.73;;
69609;Laerm;56815;52.320;4.858;2022-11-20T00:15:11;35.45;33.59;37.28;;
69609;Laerm;56815;52.320;4.858;2022-11-20T00:15:22;35.63;33.49;37.43;;
69609;Laerm;56815;52.320;4.858;2022-11-20T00:15:32;35.95;33.08;37.97;;
69609;Laerm;56815;52.320;4.858;2022-11-20T00:15:43;36.64;34.19;38.94;;
69609;Laerm;56815;52.320;4.858;2022-11-20T00:15:56;35.84;32.76;38.26;;
69609;Laerm;56815;52.320;4.858;2022-11-20T00:16:07;36.16;33.87;38.13;;
69609;Laerm;56815;52.320;4.858;2022-11-20T00:16:19;35.99;33.92;38.21;;
69609;Laerm;56815;52.320;4.858;2022-11-20T00:16:31;35.80;34.02;38.38;;
69609;Laerm;56815;52.320;4.858;2022-11-20T00:16:41;35.39;33.28;37.23;;
69609;Laerm;56815;52.320;4.858;2022-11-20T00:16:52;35.26;33.02;39.35;;
69609;Laerm;56815;52.320;4.858;2022-11-20T00:17:02;35.67;33.77;37.22;;
69609;Laerm;56815;52.320;4.858;2022-11-20T00:17:12;35.21;33.46;37.61;;
69609;Laerm;56815;52.320;4.858;2022-11-20T00:17:22;35.50;33.62;37.11;;
69609;Laerm;56815;52.320;4.858;2022-11-20T00:17:33;35.62;33.69;37.65;;
69609;Laerm;56815;52.320;4.858;2022-11-20T00:17:43;35.58;33.21;37.54;;
69609;Laerm;56815;52.320;4.858;2022-11-20T00:17:53;36.50;33.24;39.16;;
69609;Laerm;56815;52.320;4.858;2022-11-20T00:18:03;35.94;33.20;37.92;;
69609;Laerm;56815;52.320;4.858;2022-11-20T00:18:14;35.62;33.18;37.43;;
69609;Laerm;56815;52.320;4.858;2022-11-20T00:18:24;36.09;33.92;38.41;;
69609;Laerm;56815;52.320;4.858;2022-11-20T00:18:35;36.66;33.10;39.07;;
69609;Laerm;56815;52.320;4.858;2022-11-20T00:18:45;37.13;34.35;42.22;;
69609;Laerm;56815;52.320;4.858;2022-11-20T00:18:55;39.07;36.02;41.90;;
69609;Laerm;56815;52.320;4.858;2022-11-20T00:19:06;38.88;36.47;40.78;;
69609;Laerm;56815;52.320;4.858;2022-11-20T00:19:16;38.57;36.03;40.64;;
69609;Laerm;56815;52.320;4.858;2022-11-20T00:19:26;38.79;36.31;41.99;;
69609;Laerm;56815;52.320;4.858;2022-11-20T00:19:37;40.38;36.82;52.95;;
69609;Laerm;56815;52.320;4.858;2022-11-20T00:19:47;39.25;35.15;45.05;;
69609;Laerm;56815;52.320;4.858;2022-11-20T00:19:57;37.96;34.94;44.39;;
69609;Laerm;56815;52.320;4.858;2022-11-20T00:20:08;37.12;34.82;40.29;;
69609;Laerm;56815;52.320;4.858;2022-11-20T00:20:18;36.82;34.64;38.98;;
69609;Laerm;56815;52.320;4.858;2022-11-20T00:20:28;37.78;35.30;43.35;;
69609;Laerm;56815;52.320;4.858;2022-11-20T00:20:39;36.80;34.64;38.78;;
69609;Laerm;56815;52.320;4.858;2022-11-20T00:20:49;35.94;33.75;37.87;;
69609;Laerm;56815;52.320;4.858;2022-11-20T00:21:00;36.51;34.39;38.75;;
69609;Laerm;56815;52.320;4.858;2022-11-20T00:21:24;37.07;34.54;39.39;;
69609;Laerm;56815;52.320;4.858;2022-11-20T00:21:35;37.17;34.27;39.46;;
69609;Laerm;56815;52.320;4.858;2022-11-20T00:21:45;36.42;33.66;38.87;;
69609;Laerm;56815;52.320;4.858;2022-11-20T00:21:55;37.48;34.66;40.49;;
69609;Laerm;56815;52.320;4.858;2022-11-20T00:22:05;37.84;34.85;40.57;;
69609;Laerm;56815;52.320;4.858;2022-11-20T00:22:16;37.16;34.93;41.11;;
69609;Laerm;56815;52.320;4.858;2022-11-20T00:22:26;36.80;34.41;39.42;;
69609;Laerm;56815;52.320;4.858;2022-11-20T00:22:36;36.81;34.67;39.54;;
69609;Laerm;56815;52.320;4.858;2022-11-20T00:22:47;36.76;34.23;39.28;;
69609;Laerm;56815;52.320;4.858;2022-11-20T00:22:57;36.67;34.49;41.10;;
69609;Laerm;56815;52.320;4.858;2022-11-20T00:23:07;35.67;33.65;37.40;;
69609;Laerm;56815;52.320;4.858;2022-11-20T00:23:18;36.34;33.86;38.80;;
69609;Laerm;56815;52.320;4.858;2022-11-20T00:23:28;36.62;34.51;39.18;;
69609;Laerm;56815;52.320;4.858;2022-11-20T00:23:38;36.93;34.34;39.40;;
69609;Laerm;56815;52.320;4.858;2022-11-20T00:23:49;38.35;35.82;40.72;;
69609;Laerm;56815;52.320;4.858;2022-11-20T00:23:59;36.80;34.01;39.93;;
69609;Laerm;56815;52.320;4.858;2022-11-20T00:24:09;36.79;34.41;39.04;;
69609;Laerm;56815;52.320;4.858;2022-11-20T00:24:20;37.67;35.02;40.10;;
69609;Laerm;56815;52.320;4.858;2022-11-20T00:24:31;36.72;34.77;39.14;;
69609;Laerm;56815;52.320;4.858;2022-11-20T00:24:41;36.83;33.71;39.79;;
69609;Laerm;56815;52.320;4.858;2022-11-20T00:24:51;37.09;34.55;42.32;;
69609;Laerm;56815;52.320;4.858;2022-11-20T00:25:02;37.58;34.79;44.97;;
69609;Laerm;56815;52.320;4.858;2022-11-20T00:25:12;40.55;35.20;54.00;;
69609;Laerm;56815;52.320;4.858;2022-11-20T00:25:22;36.61;34.91;38.48;;
69609;Laerm;56815;52.320;4.858;2022-11-20T00:25:36;36.82;33.90;40.29;;
69609;Laerm;56815;52.320;4.858;2022-11-20T00:25:46;37.23;34.79;40.27;;
69609;Laerm;56815;52.320;4.858;2022-11-20T00:25:56;37.68;35.01;42.51;;
69609;Laerm;56815;52.320;4.858;2022-11-20T00:26:12;36.95;34.02;40.92;;
69609;Laerm;56815;52.320;4.858;2022-11-20T00:26:23;36.61;34.36;40.01;;
69609;Laerm;56815;52.320;4.858;2022-11-20T00:26:34;36.67;34.63;38.44;;
69609;Laerm;56815;52.320;4.858;2022-11-20T00:26:44;36.55;33.97;39.82;;
69609;Laerm;56815;52.320;4.858;2022-11-20T00:26:54;36.64;34.12;43.35;;
69609;Laerm;56815;52.320;4.858;2022-11-20T00:27:05;36.54;34.69;39.35;;
69609;Laerm;56815;52.320;4.858;2022-11-20T00:27:15;36.43;34.00;39.38;;
69609;Laerm;56815;52.320;4.858;2022-11-20T00:27:25;36.60;34.40;38.52;;
69609;Laerm;56815;52.320;4.858;2022-11-20T00:27:35;36.31;33.78;39.19;;
69609;Laerm;56815;52.320;4.858;2022-11-20T00:27:46;36.53;34.13;38.40;;
69609;Laerm;56815;52.320;4.858;2022-11-20T00:27:56;36.53;34.60;38.74;;
69609;Laerm;56815;52.320;4.858;2022-11-20T00:28:06;35.96;33.48;39.12;;
69609;Laerm;56815;52.320;4.858;2022-11-20T00:28:17;36.31;33.60;38.17;;
69609;Laerm;56815;52.320;4.858;2022-11-20T00:28:27;35.66;33.40;38.38;;
69609;Laerm;56815;52.320;4.858;2022-11-20T00:28:37;36.07;34.07;38.59;;
69609;Laerm;56815;52.320;4.858;2022-11-20T00:28:49;37.06;33.91;39.37;;
69609;Laerm;56815;52.320;4.858;2022-11-20T00:29:00;36.29;33.57;38.89;;
69609;Laerm;56815;52.320;4.858;2022-11-20T00:29:11;36.37;33.81;39.97;;
69609;Laerm;56815;52.320;4.858;2022-11-20T00:29:21;37.18;34.92;39.67;;
69609;Laerm;56815;52.320;4.858;2022-11-20T00:29:31;37.06;34.79;39.18;;
69609;Laerm;56815;52.320;4.858;2022-11-20T00:29:42;37.29;34.50;44.64;;
69609;Laerm;56815;52.320;4.858;2022-11-20T00:29:52;40.59;34.37;55.85;;
69609;Laerm;56815;52.320;4.858;2022-11-20T00:30:03;38.58;35.33;46.19;;
69609;Laerm;56815;52.320;4.858;2022-11-20T00:30:13;38.50;34.78;45.53;;
69609;Laerm;56815;52.320;4.858;2022-11-20T00:30:23;42.43;35.84;52.87;;
69609;Laerm;56815;52.320;4.858;2022-11-20T00:30:34;41.58;35.19;50.92;;
69609;Laerm;56815;52.320;4.858;2022-11-20T00:30:44;39.08;34.21;50.06;;
69609;Laerm;56815;52.320;4.858;2022-11-20T00:31:15;39.91;35.37;47.91;;
69609;Laerm;56815;52.320;4.858;2022-11-20T00:31:25;38.66;35.59;53.47;;
69609;Laerm;56815;52.320;4.858;2022-11-20T00:31:36;38.14;35.87;41.06;;
69609;Laerm;56815;52.320;4.858;2022-11-20T00:31:46;38.15;36.27;40.42;;
69609;Laerm;56815;52.320;4.858;2022-11-20T00:31:56;38.48;36.35;43.81;;
69609;Laerm;56815;52.320;4.858;2022-11-20T00:32:06;38.37;35.89;40.92;;
69609;Laerm;56815;52.320;4.858;2022-11-20T00:32:17;37.99;35.66;40.67;;
69609;Laerm;56815;52.320;4.858;2022-11-20T00:32:27;38.48;35.97;41.01;;
69609;Laerm;56815;52.320;4.858;2022-11-20T00:32:37;38.11;35.71;42.49;;
69609;Laerm;56815;52.320;4.858;2022-11-20T00:32:47;38.06;35.75;42.73;;
69609;Laerm;56815;52.320;4.858;2022-11-20T00:32:58;37.45;34.78;39.76;;
69609;Laerm;56815;52.320;4.858;2022-11-20T00:33:08;36.22;33.79;38.26;;
69609;Laerm;56815;52.320;4.858;2022-11-20T00:33:18;36.93;34.32;40.53;;
69609;Laerm;56815;52.320;4.858;2022-11-20T00:33:28;36.98;34.52;41.49;;
69609;Laerm;56815;52.320;4.858;2022-11-20T00:33:39;35.99;33.57;38.26;;
69609;Laerm;56815;52.320;4.858;2022-11-20T00:33:50;35.66;33.61;39.02;;
69609;Laerm;56815;52.320;4.858;2022-11-20T00:34:00;36.06;33.25;38.18;;
69609;Laerm;56815;52.320;4.858;2022-11-20T00:34:10;36.09;33.76;38.48;;
69609;Laerm;56815;52.320;4.858;2022-11-20T00:34:21;36.18;34.24;38.25;;
69609;Laerm;56815;52.320;4.858;2022-11-20T00:34:31;36.66;34.53;38.89;;
69609;Laerm;56815;52.320;4.858;2022-11-20T00:34:41;35.89;33.59;37.73;;
69609;Laerm;56815;52.320;4.858;2022-11-20T00:34:51;36.45;33.32;38.59;;
69609;Laerm;56815;52.320;4.858;2022-11-20T00:35:02;36.56;34.21;39.74;;
69609;Laerm;56815;52.320;4.858;2022-11-20T00:35:12;36.37;34.49;39.37;;
69609;Laerm;56815;52.320;4.858;2022-11-20T00:35:22;37.49;35.05;40.84;;
69609;Laerm;56815;52.320;4.858;2022-11-20T00:35:32;37.43;35.07;40.50;;
69609;Laerm;56815;52.320;4.858;2022-11-20T00:35:43;36.44;34.52;38.26;;
69609;Laerm;56815;52.320;4.858;2022-11-20T00:35:53;35.57;33.22;37.93;;
69609;Laerm;56815;52.320;4.858;2022-11-20T00:36:04;35.10;33.10;37.51;;
69609;Laerm;56815;52.320;4.858;2022-11-20T00:36:16;34.84;32.71;37.80;;
69609;Laerm;56815;52.320;4.858;2022-11-20T00:36:28;35.44;33.20;39.10;;
69609;Laerm;56815;52.320;4.858;2022-11-20T00:36:38;35.55;32.89;38.58;;
69609;Laerm;56815;52.320;4.858;2022-11-20T00:36:48;35.46;33.18;37.12;;
69609;Laerm;56815;52.320;4.858;2022-11-20T00:36:58;35.03;32.97;37.62;;
69609;Laerm;56815;52.320;4.858;2022-11-20T00:37:09;34.92;32.76;37.70;;
69609;Laerm;56815;52.320;4.858;2022-11-20T00:37:19;34.69;33.23;36.93;;
69609;Laerm;56815;52.320;4.858;2022-11-20T00:37:29;35.22;32.98;39.16;;
69609;Laerm;56815;52.320;4.858;2022-11-20T00:37:40;35.16;33.12;37.05;;
69609;Laerm;56815;52.320;4.858;2022-11-20T00:37:50;36.92;34.33;44.91;;
69609;Laerm;56815;52.320;4.858;2022-11-20T00:38:00;35.77;33.62;38.71;;
69609;Laerm;56815;52.320;4.858;2022-11-20T00:38:11;35.97;33.76;43.63;;
69609;Laerm;56815;52.320;4.858;2022-11-20T00:38:21;35.82;33.25;38.32;;
69609;Laerm;56815;52.320;4.858;2022-11-20T00:38:31;34.98;33.23;36.93;;
69609;Laerm;56815;52.320;4.858;2022-11-20T00:38:42;35.28;33.42;37.67;;
69609;Laerm;56815;52.320;4.858;2022-11-20T00:38:56;34.86;32.43;36.74;;
69609;Laerm;56815;52.320;4.858;2022-11-20T00:39:07;35.42;32.56;43.13;;
69609;Laerm;56815;52.320;4.858;2022-11-20T00:39:17;36.00;32.93;50.02;;
69609;Laerm;56815;52.320;4.858;2022-11-20T00:39:27;35.69;32.68;37.47;;
69609;Laerm;56815;52.320;4.858;2022-11-20T00:39:37;35.47;33.53;37.52;;
69609;Laerm;56815;52.320;4.858;2022-11-20T00:39:48;36.63;34.06;39.15;;
69609;Laerm;56815;52.320;4.858;2022-11-20T00:39:58;35.83;33.62;38.21;;
69609;Laerm;56815;52.320;4.858;2022-11-20T00:40:08;35.19;33.31;37.11;;
69609;Laerm;56815;52.320;4.858;2022-11-20T00:40:19;35.55;33.42;38.89;;
69609;Laerm;56815;52.320;4.858;2022-11-20T00:40:29;35.66;33.42;40.64;;
69609;Laerm;56815;52.320;4.858;2022-11-20T00:40:39;35.58;31.54;38.19;;
69609;Laerm;56815;52.320;4.858;2022-11-20T00:40:54;35.51;33.06;38.04;;
69609;Laerm;56815;52.320;4.858;2022-11-20T00:41:06;35.99;32.38;46.88;;
69609;Laerm;56815;52.320;4.858;2022-11-20T00:41:16;36.29;32.54;53.80;;
69609;Laerm;56815;52.320;4.858;2022-11-20T00:41:27;34.05;31.76;35.93;;
69609;Laerm;56815;52.320;4.858;2022-11-20T00:41:38;34.21;32.35;36.00;;
69609;Laerm;56815;52.320;4.858;2022-11-20T00:41:48;35.40;32.58;39.39;;
69609;Laerm;56815;52.320;4.858;2022-11-20T00:41:59;35.13;33.35;37.27;;
69609;Laerm;56815;52.320;4.858;2022-11-20T00:42:09;34.45;32.39;36.81;;
69609;Laerm;56815;52.320;4.858;2022-11-20T00:42:19;36.81;32.24;49.16;;
69609;Laerm;56815;52.320;4.858;2022-11-20T00:42:29;35.43;32.96;38.36;;
69609;Laerm;56815;52.320;4.858;2022-11-20T00:42:42;35.95;33.11;46.44;;
69609;Laerm;56815;52.320;4.858;2022-11-20T00:42:53;35.97;33.63;38.41;;
69609;Laerm;56815;52.320;4.858;2022-11-20T00:43:03;35.51;33.42;37.60;;
69609;Laerm;56815;52.320;4.858;2022-11-20T00:43:13;35.60;33.68;37.72;;
69609;Laerm;56815;52.320;4.858;2022-11-20T00:43:24;35.23;33.21;36.83;;
69609;Laerm;56815;52.320;4.858;2022-11-20T00:43:35;34.89;32.44;36.72;;
69609;Laerm;56815;52.320;4.858;2022-11-20T00:43:45;35.22;33.39;37.09;;
69609;Laerm;56815;52.320;4.858;2022-11-20T00:43:55;35.38;33.25;37.31;;
69609;Laerm;56815;52.320;4.858;2022-11-20T00:44:06;35.09;32.92;37.37;;
69609;Laerm;56815;52.320;4.858;2022-11-20T00:44:16;35.31;33.31;37.62;;
69609;Laerm;56815;52.320;4.858;2022-11-20T00:44:26;34.93;33.24;37.10;;
69609;Laerm;56815;52.320;4.858;2022-11-20T00:44:37;35.46;33.25;37.91;;
69609;Laerm;56815;52.320;4.858;2022-11-20T00:44:47;35.73;33.72;38.97;;
69609;Laerm;56815;52.320;4.858;2022-11-20T00:44:57;35.53;33.45;37.31;;
69609;Laerm;56815;52.320;4.858;2022-11-20T00:45:07;35.39;33.21;37.32;;
69609;Laerm;56815;52.320;4.858;2022-11-20T00:45:18;35.54;33.53;39.70;;
69609;Laerm;56815;52.320;4.858;2022-11-20T00:45:28;35.43;33.50;37.99;;
69609;Laerm;56815;52.320;4.858;2022-11-20T00:45:38;35.44;33.26;37.61;;
69609;Laerm;56815;52.320;4.858;2022-11-20T00:45:50;35.18;32.58;39.53;;
69609;Laerm;56815;52.320;4.858;2022-11-20T00:46:01;35.57;33.27;37.26;;
69609;Laerm;56815;52.320;4.858;2022-11-20T00:46:16;36.65;34.50;39.23;;
69609;Laerm;56815;52.320;4.858;2022-11-20T00:46:27;36.19;33.87;39.02;;
69609;Laerm;56815;52.320;4.858;2022-11-20T00:46:37;36.05;34.27;38.42;;
69609;Laerm;56815;52.320;4.858;2022-11-20T00:46:48;36.19;34.07;38.68;;
69609;Laerm;56815;52.320;4.858;2022-11-20T00:46:58;36.73;34.16;39.07;;
69609;Laerm;56815;52.320;4.858;2022-11-20T00:47:08;36.85;35.09;40.05;;
69609;Laerm;56815;52.320;4.858;2022-11-20T00:47:19;36.49;34.43;39.15;;
69609;Laerm;56815;52.320;4.858;2022-11-20T00:47:29;36.80;34.20;40.02;;
69609;Laerm;56815;52.320;4.858;2022-11-20T00:47:39;37.15;34.58;40.26;;
69609;Laerm;56815;52.320;4.858;2022-11-20T00:47:49;37.01;33.99;39.45;;
69609;Laerm;56815;52.320;4.858;2022-11-20T00:48:00;37.17;34.44;40.28;;
69609;Laerm;56815;52.320;4.858;2022-11-20T00:48:10;36.93;34.92;39.51;;
69609;Laerm;56815;52.320;4.858;2022-11-20T00:48:20;36.57;34.01;38.92;;
69609;Laerm;56815;52.320;4.858;2022-11-20T00:48:30;36.57;34.07;39.36;;
69609;Laerm;56815;52.320;4.858;2022-11-20T00:48:41;36.23;34.19;38.61;;
69609;Laerm;56815;52.320;4.858;2022-11-20T00:48:52;35.83;33.67;38.02;;
69609;Laerm;56815;52.320;4.858;2022-11-20T00:49:02;36.11;33.93;41.11;;
69609;Laerm;56815;52.320;4.858;2022-11-20T00:49:12;35.65;33.64;37.74;;
69609;Laerm;56815;52.320;4.858;2022-11-20T00:49:23;35.74;33.74;38.36;;
69609;Laerm;56815;52.320;4.858;2022-11-20T00:49:33;36.95;34.54;39.92;;
69609;Laerm;56815;52.320;4.858;2022-11-20T00:49:43;36.49;34.19;39.04;;
69609;Laerm;56815;52.320;4.858;2022-11-20T00:49:53;35.81;33.26;38.22;;
69609;Laerm;56815;52.320;4.858;2022-11-20T00:50:04;35.57;33.44;38.64;;
69609;Laerm;56815;52.320;4.858;2022-11-20T00:50:14;35.91;33.69;38.86;;
69609;Laerm;56815;52.320;4.858;2022-11-20T00:50:24;35.79;33.61;38.41;;
69609;Laerm;56815;52.320;4.858;2022-11-20T00:50:35;36.10;34.11;38.05;;
69609;Laerm;56815;52.320;4.858;2022-11-20T00:50:45;36.56;34.50;40.72;;
69609;Laerm;56815;52.320;4.858;2022-11-20T00:50:55;37.32;34.41;39.97;;
69609;Laerm;56815;52.320;4.858;2022-11-20T00:51:06;35.79;32.51;38.21;;
69609;Laerm;56815;52.320;4.858;2022-11-20T00:51:18;35.71;33.13;37.85;;
69609;Laerm;56815;52.320;4.858;2022-11-20T00:51:28;35.92;33.67;38.08;;
69609;Laerm;56815;52.320;4.858;2022-11-20T00:51:38;36.01;33.78;38.26;;
69609;Laerm;56815;52.320;4.858;2022-11-20T00:51:49;37.00;34.56;39.21;;
69609;Laerm;56815;52.320;4.858;2022-11-20T00:51:59;36.54;33.85;38.83;;
69609;Laerm;56815;52.320;4.858;2022-11-20T00:52:09;36.87;34.14;40.42;;
69609;Laerm;56815;52.320;4.858;2022-11-20T00:52:20;36.55;33.75;40.34;;
69609;Laerm;56815;52.320;4.858;2022-11-20T00:52:30;35.97;33.81;38.93;;
69609;Laerm;56815;52.320;4.858;2022-11-20T00:52:40;35.80;33.48;38.56;;
69609;Laerm;56815;52.320;4.858;2022-11-20T00:52:51;35.39;32.97;40.75;;
69609;Laerm;56815;52.320;4.858;2022-11-20T00:53:01;35.25;32.92;37.30;;
69609;Laerm;56815;52.320;4.858;2022-11-20T00:53:11;35.56;32.92;37.84;;
69609;Laerm;56815;52.320;4.858;2022-11-20T00:53:21;36.17;33.66;38.22;;
69609;Laerm;56815;52.320;4.858;2022-11-20T00:53:32;36.05;33.93;37.77;;
69609;Laerm;56815;52.320;4.858;2022-11-20T00:53:42;36.39;33.67;40.55;;
69609;Laerm;56815;52.320;4.858;2022-11-20T00:53:54;36.68;34.33;38.26;;
69609;Laerm;56815;52.320;4.858;2022-11-20T00:54:05;36.88;34.55;38.69;;
69609;Laerm;56815;52.320;4.858;2022-11-20T00:54:15;36.59;34.44;38.57;;
69609;Laerm;56815;52.320;4.858;2022-11-20T00:54:25;36.39;34.34;38.17;;
69609;Laerm;56815;52.320;4.858;2022-11-20T00:54:35;36.95;34.55;38.84;;
69609;Laerm;56815;52.320;4.858;2022-11-20T00:54:46;37.02;35.03;39.17;;
69609;Laerm;56815;52.320;4.858;2022-11-20T00:54:56;36.21;32.58;39.06;;
69609;Laerm;56815;52.320;4.858;2022-11-20T00:55:06;35.20;32.74;37.89;;
69609;Laerm;56815;52.320;4.858;2022-11-20T00:55:17;34.95;32.34;37.07;;
69609;Laerm;56815;52.320;4.858;2022-11-20T00:55:27;35.21;32.86;37.83;;
69609;Laerm;56815;52.320;4.858;2022-11-20T00:55:37;35.84;34.10;37.88;;
69609;Laerm;56815;52.320;4.858;2022-11-20T00:56:00;36.03;33.91;38.34;;
69609;Laerm;56815;52.320;4.858;2022-11-20T00:56:12;35.64;33.29;38.72;;
69609;Laerm;56815;52.320;4.858;2022-11-20T00:56:22;35.92;33.58;37.97;;
69609;Laerm;56815;52.320;4.858;2022-11-20T00:56:32;35.25;33.29;37.86;;
69609;Laerm;56815;52.320;4.858;2022-11-20T00:56:43;35.05;33.16;37.44;;
69609;Laerm;56815;52.320;4.858;2022-11-20T00:56:53;35.89;33.59;37.82;;
69609;Laerm;56815;52.320;4.858;2022-11-20T00:57:03;36.11;33.63;40.39;;
69609;Laerm;56815;52.320;4.858;2022-11-20T00:57:13;35.35;33.32;37.57;;
69609;Laerm;56815;52.320;4.858;2022-11-20T00:57:24;35.99;33.53;39.27;;
69609;Laerm;56815;52.320;4.858;2022-11-20T00:57:34;36.65;34.93;39.19;;
69609;Laerm;56815;52.320;4.858;2022-11-20T00:57:44;35.73;33.59;37.86;;
69609;Laerm;56815;52.320;4.858;2022-11-20T00:57:54;35.35;33.36;37.93;;
69609;Laerm;56815;52.320;4.858;2022-11-20T00:58:05;35.00;32.60;37.41;;
69609;Laerm;56815;52.320;4.858;2022-11-20T00:58:15;34.71;32.56;36.47;;
69609;Laerm;56815;52.320;4.858;2022-11-20T00:58:29;34.20;31.81;36.80;;
69609;Laerm;56815;52.320;4.858;2022-11-20T00:58:40;33.90;31.06;35.74;;
69609;Laerm;56815;52.320;4.858;2022-11-20T00:58:51;34.43;32.57;36.44;;
69609;Laerm;56815;52.320;4.858;2022-11-20T00:59:01;35.02;32.58;37.29;;
69609;Laerm;56815;52.320;4.858;2022-11-20T00:59:11;35.33;33.34;37.11;;
69609;Laerm;56815;52.320;4.858;2022-11-20T00:59:22;34.83;32.82;36.72;;
69609;Laerm;56815;52.320;4.858;2022-11-20T00:59:32;35.14;32.72;37.82;;
69609;Laerm;56815;52.320;4.858;2022-11-20T00:59:42;35.46;32.93;37.57;;
69609;Laerm;56815;52.320;4.858;2022-11-20T00:59:52;36.27;33.48;38.35;;